Terminal Aerodrome Forecast
Issued by NWS

Home | Current Version | Previous Version | Graphics & Text | Print | Product List | Glossary On
Versions: 1 2 3 4 5 6 7 8 9 10 11 12 13 14 15 16
000
FTUS42 KMHX 250546
TAFPGV
TAF
KPGV 250546Z 2506/2606 06005KT P6SM OVC007
      TEMPO 2508/2512 OVC005
     FM251400 06005KT P6SM OVC015
     FM251800 05007KT P6SM BKN035
      AMD LTD TO CLD VIS AND WIND=

USA.gov is the U.S. government's official web portal to all federal, state and local government web resources and services.